Time;durP1;ratioP1;P1;durP2;ratioP2;P2;SDS_P1;SDS_P2;PMS_P1;PMS_P2;Temp;Humidity;BMP_temperature;BMP_pressure;BME280_temperature;BME280_humidity;BME280_pressure;Samples;Min_cycle;Max_cycle;Signal;HPM_P1;HPM_P2
2021/04/06 17:46:23;;;;;;;8.08;3.77;;;;;;;-0.05;76.58;98030.38;1762344;79;22584;-68
2021/04/06 17:48:51;;;;;;;10.38;4.75;;;;;;;-0.16;76.63;98038.85;1739602;80;21143;-69
2021/04/06 17:51:20;;;;;;;7.12;3.90;;;;;;;-0.23;76.71;98040.30;1739578;80;21256;-69
2021/04/06 17:53:47;;;;;;;8.65;3.67;;;;;;;-0.28;76.73;98049.02;1733886;80;21025;-69
2021/04/06 17:56:16;;;;;;;5.60;3.17;;;;;;;-0.33;76.79;98041.48;1732313;81;22266;-65
2021/04/06 17:58:44;;;;;;;6.90;3.58;;;;;;;-0.37;76.88;98045.01;1731882;81;21253;-65
2021/04/06 18:01:15;;;;;;;7.65;3.05;;;;;;;-0.41;76.89;98045.16;1707642;81;21587;-66
2021/04/06 18:03:42;;;;;;;7.90;4.15;;;;;;;-0.46;76.90;98050.42;1679053;83;21210;-65
2021/04/06 18:06:10;;;;;;;;;;;;;;;-0.50;76.96;98048.84;1687922;83;21092;-65
2021/04/06 18:08:37;;;;;;;8.65;3.50;;;;;;;-0.53;77.04;98054.06;1682286;83;20506;-65
2021/04/06 18:11:05;;;;;;;10.25;3.70;;;;;;;-0.57;77.08;98060.15;1674989;84;26922;-65
2021/04/06 18:13:31;;;;;;;7.55;3.62;;;;;;;-0.59;77.10;98064.47;1700699;81;22292;-65
2021/04/06 18:16:00;;;;;;;11.93;4.22;;;;;;;-0.63;77.12;98061.61;1697113;81;21215;-66
2021/04/06 18:18:27;;;;;;;11.30;4.67;;;;;;;-0.66;77.17;98060.42;1678866;84;21199;-65
2021/04/06 18:20:55;;;;;;;13.03;5.47;;;;;;;-0.70;77.18;98063.08;1679382;84;24248;-65
2021/04/06 18:23:22;;;;;;;;;;;;;;;-0.71;77.28;98070.34;1683798;84;21208;-65
2021/04/06 18:25:49;;;;;;;12.30;5.70;;;;;;;-0.69;77.46;98071.60;1681726;82;20322;-65
2021/04/06 18:28:16;;;;;;;10.60;5.25;;;;;;;-0.66;77.47;98077.08;1692049;82;22235;-66
2021/04/06 18:30:43;;;;;;;8.68;4.67;;;;;;;-0.64;77.46;98071.45;1679365;82;21223;-64
2021/04/06 18:33:18;;;;;;;8.88;4.37;;;;;;;-0.65;77.45;98073.63;1677728;84;21257;-65
2021/04/06 18:35:58;;;;;;;11.22;4.83;;;;;;;-0.66;77.42;98074.52;1687298;84;21165;-65
2021/04/06 18:38:36;;;;;;;11.08;5.10;;;;;;;-0.70;77.42;98075.89;1685339;84;21182;-65
2021/04/06 18:41:07;;;;;;;7.92;4.33;;;;;;;-0.74;77.47;98070.44;1682071;83;21304;-65
2021/04/06 18:43:36;;;;;;;11.22;4.65;;;;;;;-0.77;77.56;98071.80;1680533;84;21123;-65
2021/04/06 18:46:06;;;;;;;11.20;4.92;;;;;;;-0.82;77.55;98065.97;1682148;84;21215;-65
2021/04/06 18:48:33;;;;;;;15.18;5.17;;;;;;;-0.86;77.58;98064.38;1745212;81;21263;-65
2021/04/06 18:51:01;;;;;;;;;;;;;;;-0.89;77.63;98065.75;1745906;81;21049;-64
2021/04/06 18:53:30;;;;;;;10.82;4.55;;;;;;;-0.96;77.66;98077.88;1741560;80;21445;-64
2021/04/06 18:55:58;;;;;;;9.48;3.50;;;;;;;-1.01;77.71;98070.78;1749029;81;22300;-65
2021/04/06 18:58:26;;;;;;;10.40;4.33;;;;;;;-1.05;77.81;98074.73;1686435;84;21691;-65
2021/04/06 19:00:54;;;;;;;13.68;4.72;;;;;;;-1.08;77.82;98076.09;1688856;84;21147;-65
2021/04/06 19:03:22;;;;;;;11.65;4.80;;;;;;;-1.14;77.90;98074.09;1660334;84;21219;-64
2021/04/06 19:05:51;;;;;;;9.55;4.08;;;;;;;-1.16;77.93;98079.69;1706270;81;22211;-64
2021/04/06 19:08:21;;;;;;;9.65;4.60;;;;;;;-1.18;77.94;98076.31;1706422;83;21183;-64
2021/04/06 19:10:53;;;;;;;12.50;4.85;;;;;;;-1.20;78.01;98075.55;1709773;81;22256;-65
2021/04/06 19:13:23;;;;;;;9.88;4.12;;;;;;;-1.23;78.00;98074.34;1705610;83;21245;-64
2021/04/06 19:15:54;;;;;;;9.63;4.12;;;;;;;-1.26;78.08;98070.59;1697416;82;21251;-64
2021/04/06 19:18:26;;;;;;;13.60;4.60;;;;;;;-1.29;78.12;98073.20;1740646;81;21204;-65
2021/04/06 19:20:57;;;;;;;7.62;4.17;;;;;;;-1.32;78.15;98072.00;1736967;81;21143;-65
2021/04/06 19:23:26;;;;;;;12.82;4.78;;;;;;;-1.33;78.19;98075.90;1742730;81;21078;-65
2021/04/06 19:25:54;;;;;;;9.13;4.50;;;;;;;-1.35;78.28;98077.20;1684082;84;21209;-65
2021/04/06 19:28:23;;;;;;;10.35;4.72;;;;;;;-1.37;78.34;98075.14;1697896;82;21245;-65
2021/04/06 19:30:52;;;;;;;12.37;4.37;;;;;;;-1.39;78.34;98071.77;1736715;81;21173;-64
2021/04/06 19:33:20;;;;;;;7.70;4.10;;;;;;;-1.42;78.33;98066.73;1746480;81;22288;-65
2021/04/06 19:35:47;;;;;;;8.18;3.55;;;;;;;-1.43;78.40;98074.00;1743110;81;21059;-65
2021/04/06 19:38:14;;;;;;;7.42;3.25;;;;;;;-1.47;78.41;98070.68;1746670;81;21229;-64
2021/04/06 19:40:42;;;;;;;9.43;3.58;;;;;;;-1.51;78.46;98072.93;1740807;80;22619;-65
2021/04/06 19:43:09;;;;;;;9.18;4.53;;;;;;;-1.53;78.52;98071.28;1744869;81;26659;-65
2021/04/06 19:45:36;;;;;;;10.20;4.25;;;;;;;-1.59;78.57;98069.27;1676844;83;21670;-65
2021/04/06 19:48:05;;;;;;;;;;;;;;;-1.61;78.67;98065.07;1681940;84;21191;-65
2021/04/06 19:50:33;;;;;;;7.28;3.70;;;;;;;-1.63;78.75;98072.77;1700131;83;20223;-64
2021/04/06 19:53:01;;;;;;;11.38;3.92;;;;;;;-1.66;78.76;98066.45;1686631;83;21241;-64
2021/04/06 19:55:36;;;;;;;11.15;3.98;;;;;;;-1.68;78.78;98074.63;1679670;84;21228;-65
2021/04/06 19:58:05;;;;;;;8.60;4.45;;;;;;;-1.70;78.86;98069.98;1680115;84;21195;-65
2021/04/06 20:00:39;;;;;;;11.43;4.50;;;;;;;-1.70;78.94;98073.81;1679647;84;21227;-65
2021/04/06 20:03:07;;;;;;;11.40;4.83;;;;;;;-1.71;78.91;98073.42;1679423;84;21216;-65
2021/04/06 20:05:34;;;;;;;;;;;;;;;-1.73;78.93;98070.05;1708440;81;21234;-65
2021/04/06 20:08:01;;;;;;;5.33;3.45;;;;;;;-1.74;79.07;98073.47;1685000;83;21014;-64
2021/04/06 20:10:31;;;;;;;9.50;3.70;;;;;;;-1.75;79.05;98069.24;1706313;83;21681;-65
2021/04/06 20:13:02;;;;;;;7.92;3.42;;;;;;;-1.75;79.11;98073.08;1676226;83;21204;-64
2021/04/06 20:15:33;;;;;;;8.73;4.58;;;;;;;-1.75;79.06;98071.80;1672011;85;21216;-64
2021/04/06 20:18:00;;;;;;;7.87;3.60;;;;;;;-1.77;79.09;98069.71;1682058;83;21249;-65
2021/04/06 20:20:35;;;;;;;9.65;3.75;;;;;;;-1.78;79.17;98065.48;1706565;82;21223;-64
2021/04/06 20:23:05;;;;;;;9.10;4.22;;;;;;;-1.79;79.17;98065.09;1680850;83;21572;-65
2021/04/06 20:25:33;;;;;;;8.48;3.87;;;;;;;-1.79;79.25;98070.20;1682181;84;21233;-64
2021/04/06 20:28:02;;;;;;;8.38;3.45;;;;;;;-1.81;79.24;98056.61;1677918;84;21094;-65
2021/04/06 20:30:48;;;;;;;5.83;3.17;;;;;;;-1.82;79.28;98061.30;1682287;83;21235;-65
2021/04/06 20:33:11;;;;;;;5.42;2.55;;;;;;;-1.81;79.38;98061.72;1679900;84;22610;-66
2021/04/06 20:35:37;;;;;;;7.00;3.05;;;;;;;-1.78;79.38;98064.20;1685958;84;21282;-65
2021/04/06 20:38:05;;;;;;;6.60;3.40;;;;;;;-1.78;79.36;98064.20;1681204;84;21588;-65
2021/04/06 20:40:32;;;;;;;5.22;2.62;;;;;;;-1.79;79.30;98063.81;1687375;82;22279;-65
2021/04/06 20:43:00;;;;;;;5.50;2.90;;;;;;;-1.80;79.33;98054.44;1679649;83;21223;-64
2021/04/06 20:45:27;;;;;;;7.22;2.98;;;;;;;-1.81;79.42;98057.44;1683126;82;21525;-64
2021/04/06 20:47:55;;;;;;;8.70;3.17;;;;;;;-1.81;79.38;98054.05;1697026;82;21070;-65
2021/04/06 20:50:22;;;;;;;6.35;3.08;;;;;;;-1.83;79.39;98059.19;1741356;81;21613;-64
2021/04/06 20:52:49;;;;;;;5.15;2.83;;;;;;;-1.84;79.37;98063.08;1741160;80;21258;-65
2021/04/06 20:55:17;;;;;;;6.42;2.60;;;;;;;-1.86;79.45;98055.87;1747964;81;21142;-64
2021/04/06 20:57:44;;;;;;;4.12;2.95;;;;;;;-1.86;79.48;98059.70;1740767;81;21617;-64
2021/04/06 21:00:13;;;;;;;7.03;3.77;;;;;;;-1.85;79.59;98063.94;1743578;81;21035;-65
2021/04/06 21:02:41;;;;;;;8.18;4.05;;;;;;;-1.84;79.59;98061.80;1742992;81;21131;-65
2021/04/06 21:05:08;;;;;;;7.67;4.25;;;;;;;-1.84;79.57;98061.80;1694344;82;21996;-65
2021/04/06 21:07:36;;;;;;;11.40;4.70;;;;;;;-1.85;79.60;98067.77;1708372;83;21069;-65
2021/04/06 21:10:06;;;;;;;10.95;4.85;;;;;;;-1.87;79.55;98064.44;1710880;83;27245;-65
2021/04/06 21:12:33;;;;;;;9.55;4.35;;;;;;;-1.89;79.61;98059.78;1692253;84;21197;-65
2021/04/06 21:15:00;;;;;;;8.08;4.17;;;;;;;-1.91;79.63;98063.64;1692969;82;21254;-65
2021/04/06 21:17:27;;;;;;;10.90;3.30;;;;;;;-1.91;79.74;98065.36;1750410;80;21223;-64
2021/04/06 21:19:54;;;;;;;9.30;3.98;;;;;;;-1.94;79.74;98060.33;1740213;81;21240;-65
2021/04/06 21:22:21;;;;;;;9.15;4.35;;;;;;;-1.94;79.73;98064.16;1748321;81;22168;-65
2021/04/06 21:24:48;;;;;;;13.40;6.58;;;;;;;-1.95;79.75;98062.49;1749326;81;20956;-64
2021/04/06 21:27:15;;;;;;;12.00;5.00;;;;;;;-1.96;79.81;98060.38;1740226;81;21222;-64
2021/04/06 21:29:42;;;;;;;8.15;3.75;;;;;;;-1.96;79.90;98055.27;1747728;80;21170;-65
2021/04/06 21:32:09;;;;;;;8.15;4.03;;;;;;;-1.98;79.88;98061.28;1694717;84;21693;-65
2021/04/06 21:34:36;;;;;;;7.35;3.52;;;;;;;-1.98;79.92;98057.45;1694776;82;21646;-65
2021/04/06 21:37:03;;;;;;;6.78;2.37;;;;;;;-1.97;79.97;98064.23;1689395;84;22118;-64
2021/04/06 21:39:30;;;;;;;5.45;2.47;;;;;;;-1.97;79.96;98060.40;1741078;81;21205;-64
2021/04/06 21:41:57;;;;;;;3.98;2.27;;;;;;;-1.98;80.01;98065.13;1749294;80;21175;-65
2021/04/06 21:44:25;;;;;;;4.65;2.55;;;;;;;-1.99;79.93;98077.48;1747038;81;21158;-65
2021/04/06 21:46:52;;;;;;;7.22;2.50;;;;;;;-1.99;79.96;98077.48;1746739;81;21207;-65
2021/04/06 21:49:19;;;;;;;6.05;2.40;;;;;;;-2.00;79.94;98075.82;1685322;83;26648;-65
2021/04/06 21:51:46;;;;;;;5.62;2.60;;;;;;;-2.01;80.01;98075.43;1687173;83;22685;-64
2021/04/06 21:54:13;;;;;;;;;;;;;;;-2.02;80.01;98073.28;1692108;83;21734;-64
2021/04/06 21:56:40;;;;;;;10.32;5.92;;;;;;;-2.05;80.04;98076.75;1695059;83;20293;-64
2021/04/06 21:59:07;;;;;;;9.30;4.85;;;;;;;-2.08;80.04;98076.82;1688726;84;21735;-65
2021/04/06 22:01:34;;;;;;;6.35;3.95;;;;;;;-2.10;80.08;98071.34;1688924;84;24934;-65
2021/04/06 22:04:02;;;;;;;8.28;4.30;;;;;;;-2.14;80.09;98070.58;1683020;84;21231;-64
2021/04/06 22:06:29;;;;;;;6.90;3.42;;;;;;;-2.18;80.15;98072.81;1690216;82;21211;-65
2021/04/06 22:08:56;;;;;;;7.65;3.40;;;;;;;-2.22;80.17;98066.07;1692336;84;21199;-64
2021/04/06 22:11:23;;;;;;;4.72;3.00;;;;;;;-2.24;80.17;98067.84;1711761;83;22348;-64
2021/04/06 22:13:50;;;;;;;4.62;2.80;;;;;;;-2.27;80.18;98068.75;1708704;83;21125;-64
2021/04/06 22:16:17;;;;;;;6.30;3.15;;;;;;;-2.28;80.26;98071.32;1705755;83;21289;-65
2021/04/06 22:18:44;;;;;;;8.45;3.52;;;;;;;-2.30;80.30;98067.95;1712208;82;21120;-64
2021/04/06 22:21:11;;;;;;;7.35;4.28;;;;;;;-2.33;80.29;98070.58;1702564;83;21149;-65
2021/04/06 22:23:38;;;;;;;9.45;4.30;;;;;;;-2.35;80.32;98069.77;1709111;83;21122;-65
2021/04/06 22:26:05;;;;;;;7.75;3.58;;;;;;;-2.36;80.39;98074.48;1707894;82;21101;-65
2021/04/06 22:28:34;;;;;;;;;;;;;;;-2.39;80.40;98075.83;1720839;83;21180;-64
2021/04/06 22:31:05;;;;;;;6.47;3.27;;;;;;;-2.40;80.45;98076.72;1709406;82;20182;-65
2021/04/06 22:33:34;;;;;;;5.17;3.08;;;;;;;-2.42;80.45;98074.17;1714011;83;21176;-64
2021/04/06 22:36:04;;;;;;;5.92;3.08;;;;;;;-2.44;80.48;98077.64;1704789;83;21384;-64
2021/04/06 22:38:35;;;;;;;9.28;3.37;;;;;;;-2.45;80.49;98073.41;1702831;83;21160;-65
2021/04/06 22:41:03;;;;;;;8.75;3.17;;;;;;;-2.49;80.48;98072.20;1703029;83;21182;-64
2021/04/06 22:43:34;;;;;;;7.45;3.47;;;;;;;-2.51;80.48;98072.66;1703158;83;21243;-65
2021/04/06 22:46:00;;;;;;;6.33;3.42;;;;;;;-2.53;80.53;98075.67;1712934;82;21621;-65
2021/04/06 22:48:28;;;;;;;6.30;3.72;;;;;;;-2.54;80.62;98075.28;1710665;82;21742;-64
2021/04/06 22:50:56;;;;;;;7.58;4.05;;;;;;;-2.55;80.63;98074.89;1715112;82;21091;-65
2021/04/06 22:53:26;;;;;;;7.92;3.00;;;;;;;-2.56;80.66;98066.80;1707195;82;21483;-64
2021/04/06 22:56:03;;;;;;;6.28;2.90;;;;;;;-2.56;80.68;98069.36;1714940;82;21197;-64
2021/04/06 22:58:34;;;;;;;6.20;2.95;;;;;;;-2.57;80.68;98067.69;1707183;82;21208;-65
2021/04/06 23:01:09;;;;;;;6.78;2.90;;;;;;;-2.57;80.69;98072.80;1725088;82;22767;-64
2021/04/06 23:03:38;;;;;;;8.38;3.10;;;;;;;-2.58;80.69;98075.38;1717708;82;21090;-64
2021/04/06 23:06:07;;;;;;;6.15;2.70;;;;;;;-2.62;80.75;98069.49;1706463;82;21211;-64
2021/04/06 23:08:35;;;;;;;5.37;3.00;;;;;;;-2.64;80.79;98067.39;1714769;82;21220;-64
2021/04/06 23:11:05;;;;;;;6.08;2.83;;;;;;;-2.65;80.80;98077.22;1716257;82;21264;-65
2021/04/06 23:13:33;;;;;;;7.15;2.80;;;;;;;-2.65;80.83;98070.83;1716167;82;21219;-65
2021/04/06 23:16:02;;;;;;;5.37;2.60;;;;;;;-2.66;80.85;98070.85;1712976;82;21251;-65
2021/04/06 23:18:29;;;;;;;7.58;2.35;;;;;;;-2.67;80.86;98073.84;1715178;82;21080;-65
2021/04/06 23:20:56;;;;;;;5.45;2.90;;;;;;;-2.68;80.91;98076.02;1711695;82;21051;-64
2021/04/06 23:23:23;;;;;;;4.17;2.40;;;;;;;-2.70;80.92;98076.47;1715580;82;21198;-64
2021/04/06 23:25:50;;;;;;;4.70;2.60;;;;;;;-2.70;80.94;98070.08;1726452;82;21874;-65
2021/04/06 23:28:17;;;;;;;5.40;2.50;;;;;;;-2.72;80.99;98070.54;1717335;82;21201;-65
2021/04/06 23:30:44;;;;;;;4.40;2.37;;;;;;;-2.73;81.03;98072.70;1721920;82;21259;-65
2021/04/06 23:33:17;;;;;;;6.22;2.65;;;;;;;-2.74;81.07;98072.31;1722597;82;21219;-64
2021/04/06 23:35:48;;;;;;;4.72;2.70;;;;;;;-2.75;81.04;98069.33;1715528;82;21195;-64
2021/04/06 23:38:19;;;;;;;4.58;2.25;;;;;;;-2.78;81.04;98064.28;1708001;82;21388;-66
2021/04/06 23:40:46;;;;;;;5.78;2.83;;;;;;;-2.78;81.08;98069.39;1709712;82;21220;-65
2021/04/06 23:43:13;;;;;;;5.03;2.83;;;;;;;-2.78;81.09;98075.78;1719199;82;21179;-66
2021/04/06 23:45:40;;;;;;;7.97;2.70;;;;;;;-2.79;81.08;98073.67;1713210;82;21578;-65
2021/04/06 23:48:08;;;;;;;5.50;2.30;;;;;;;-2.79;81.21;98074.11;1684688;82;21172;-65
2021/04/06 23:50:37;;;;;;;7.22;3.35;;;;;;;-2.80;81.21;98066.02;1686478;84;21395;-66
2021/04/06 23:53:05;;;;;;;3.27;2.60;;;;;;;-2.79;81.25;98059.62;1686188;84;21244;-66
2021/04/06 23:55:32;;;;;;;3.75;2.25;;;;;;;-2.78;81.31;98065.56;1689869;82;21187;-66
2021/04/06 23:58:01;;;;;;;4.87;2.92;;;;;;;-2.78;81.40;98060.45;1686135;84;21623;-66
